Vermillion, SD

7:03 PM CDT on October 21, 2014 (GMT -0500)
Volin | Change Station
CLOSE
Current Station
Personal Weather Station
Location: Volin, SD
Elevation: 1240 ft
Nearby Weather Stations

Elev 1240 ft 42.98 °N, 97.26 °W | Updated 8 seconds ago

Clear
Clear
67.6 °F
Feels Like 67.6 °F
N
6.0
Wind Variable Wind from ESE
Gusts 18.0 mph

Today
High -- | Low -- °F
--% Chance of Precip.
Yesterday
High -- | Low -- °F
Precip. -- in
7:48 AM 6:35 PM
Waning Crescent, 4% visible
Pressure 29.95 in
Visibility 10.0 miles
Clouds Clear
Dew Point 49 °F
Humidity 51%
Rainfall 0.00 in
Snow Depth Not available.
UV 0 out of 12
Pollen 1.70 out of 12
Air Quality Not available.
Flu Activity Sporadic
METAR KYKN 212355Z AUTO 14009KT 10SM CLR 20/06 A2995 RMK AO1 10260 20200 402600040 54000

More Conditions Fewer Conditions

Pressure 29.95 in
Visibility 10.0 miles
Clouds Clear
Dew Point 49 °F
Humidity 51%
Rainfall 0.00 in
Snow Depth Not available.
UV 0 out of 12
Pollen 1.70 out of 12
Air Quality Not available.
Flu Activity Sporadic
METAR KYKN 212355Z AUTO 14009KT 10SM CLR 20/06 A2995 RMK AO1 10260 20200 402600040 54000

More Conditions Fewer Conditions

10-Day Weather Forecast

Almanac

Astronomy

Oct. 21, 2014 Rise Set
Actual Time 7:48 AM CDT 6:35 PM CDT
Civil Twilight 7:19 AM CDT 7:04 PM CDT
Nautical Twilight 6:46 AM CDT 7:37 PM CDT
Astronomical Twilight 6:13 AM CDT 8:10 PM CDT
Moon 5:30 AM CDT (10/21) 5:32 PM CDT (10/21)
Length of Visible Light 11h 44m
Length of Day
10h 47m
Tomorrow will be 2m 44s shorter.
Waning Crescent, 4% of the Moon is Illuminated
Today
Waning Crescent
Oct 23
New
Oct 30
First Quarter
Nov 6
Full
Nov 14
Last Quarter

Today's Extremes

State Highs State Lows

Community

WunderPhotos

Upload Photos

1,763,824 photos uploaded!

Nearby

Snow Depth

Station Depth Elevation
North Rapid Creek 0 in 6130 ft
Blind Park 0 in 6890 ft

Earthquake Activity

City Distance Mag. Time & Date
No recent earthquake activity has been reported nearby.
Minimum magnitude displayed is 2.5.

Coastal Water Temperatures

Place Temperature
No Stations Reporting

Nearby Weather Stations